Terminal Aerodrome Forecast
Issued by NWS Sterling, VA

Current Version | Previous Version | Text Only | Print | Product List | Glossary On
Versions: 1 2 3 4 5 6 7 8 9 10 11 12 13 14 15 16
000
FTUS41 KLWX 232324
TAFMRB
TAF
KMRB 232324Z 2400/2424 VRB04KT P6SM SCT200
     FM241100 17005KT P6SM BKN050 BKN130
     FM241700 19008G16KT P6SM BKN050 BKN130=

USA.gov is the U.S. government's official web portal to all federal, state and local government web resources and services.